sensor_id;sensor_type;location;lat;lon;timestamp;temperature;humidity
36450;DHT22;22475;51.390;7.180;2022-12-16T00:00:12;5.90;83.40
36450;DHT22;22475;51.390;7.180;2022-12-16T00:02:40;5.90;83.40
36450;DHT22;22475;51.390;7.180;2022-12-16T00:05:07;5.90;83.40
36450;DHT22;22475;51.390;7.180;2022-12-16T00:07:34;5.90;83.40
36450;DHT22;22475;51.390;7.180;2022-12-16T00:10:02;5.90;83.40
36450;DHT22;22475;51.390;7.180;2022-12-16T00:12:29;5.80;83.30
36450;DHT22;22475;51.390;7.180;2022-12-16T00:14:56;5.90;83.30
36450;DHT22;22475;51.390;7.180;2022-12-16T00:17:23;5.80;83.30
36450;DHT22;22475;51.390;7.180;2022-12-16T00:19:49;5.90;83.30
36450;DHT22;22475;51.390;7.180;2022-12-16T00:22:16;5.80;83.30
36450;DHT22;22475;51.390;7.180;2022-12-16T00:24:43;5.80;83.30
36450;DHT22;22475;51.390;7.180;2022-12-16T00:27:11;5.80;83.30
36450;DHT22;22475;51.390;7.180;2022-12-16T00:29:38;5.80;83.20
36450;DHT22;22475;51.390;7.180;2022-12-16T00:32:04;5.80;83.20
36450;DHT22;22475;51.390;7.180;2022-12-16T00:34:31;5.80;83.20
36450;DHT22;22475;51.390;7.180;2022-12-16T00:36:58;5.80;83.30
36450;DHT22;22475;51.390;7.180;2022-12-16T00:39:25;5.80;83.30
36450;DHT22;22475;51.390;7.180;2022-12-16T00:41:52;5.80;83.30
36450;DHT22;22475;51.390;7.180;2022-12-16T00:44:20;5.80;83.30
36450;DHT22;22475;51.390;7.180;2022-12-16T00:46:47;5.80;83.30
36450;DHT22;22475;51.390;7.180;2022-12-16T00:49:13;5.80;83.30
36450;DHT22;22475;51.390;7.180;2022-12-16T00:51:40;5.80;83.20
36450;DHT22;22475;51.390;7.180;2022-12-16T00:54:07;5.80;83.20
36450;DHT22;22475;51.390;7.180;2022-12-16T00:56:34;5.80;83.20
36450;DHT22;22475;51.390;7.180;2022-12-16T00:59:01;5.80;83.30
36450;DHT22;22475;51.390;7.180;2022-12-16T01:01:29;5.70;83.20
36450;DHT22;22475;51.390;7.180;2022-12-16T01:03:56;5.70;83.20
36450;DHT22;22475;51.390;7.180;2022-12-16T01:06:23;5.70;83.20
36450;DHT22;22475;51.390;7.180;2022-12-16T01:08:50;5.80;83.30
36450;DHT22;22475;51.390;7.180;2022-12-16T01:11:18;5.70;83.20
36450;DHT22;22475;51.390;7.180;2022-12-16T01:13:45;5.70;83.20
36450;DHT22;22475;51.390;7.180;2022-12-16T01:16:15;5.70;83.20
36450;DHT22;22475;51.390;7.180;2022-12-16T01:18:43;5.70;83.30
36450;DHT22;22475;51.390;7.180;2022-12-16T01:21:11;5.70;83.20
36450;DHT22;22475;51.390;7.180;2022-12-16T01:23:39;5.70;83.30
36450;DHT22;22475;51.390;7.180;2022-12-16T01:26:06;5.70;83.20
36450;DHT22;22475;51.390;7.180;2022-12-16T01:28:33;5.70;83.20
36450;DHT22;22475;51.390;7.180;2022-12-16T01:31:00;5.70;83.20
36450;DHT22;22475;51.390;7.180;2022-12-16T01:33:27;5.70;83.20
36450;DHT22;22475;51.390;7.180;2022-12-16T01:36:00;5.70;83.20
36450;DHT22;22475;51.390;7.180;2022-12-16T01:38:27;5.70;83.10
36450;DHT22;22475;51.390;7.180;2022-12-16T01:40:54;5.70;83.20
36450;DHT22;22475;51.390;7.180;2022-12-16T01:43:24;5.70;83.20
36450;DHT22;22475;51.390;7.180;2022-12-16T01:45:52;5.70;83.20
36450;DHT22;22475;51.390;7.180;2022-12-16T01:48:31;5.70;83.20
36450;DHT22;22475;51.390;7.180;2022-12-16T01:51:04;5.70;83.20
36450;DHT22;22475;51.390;7.180;2022-12-16T01:53:33;5.70;83.20
36450;DHT22;22475;51.390;7.180;2022-12-16T01:56:00;5.70;83.20
36450;DHT22;22475;51.390;7.180;2022-12-16T01:58:31;5.60;83.10
36450;DHT22;22475;51.390;7.180;2022-12-16T02:00:59;5.70;83.10
36450;DHT22;22475;51.390;7.180;2022-12-16T02:03:31;5.70;83.10
36450;DHT22;22475;51.390;7.180;2022-12-16T02:06:01;5.70;83.10
36450;DHT22;22475;51.390;7.180;2022-12-16T02:08:28;5.70;83.10
36450;DHT22;22475;51.390;7.180;2022-12-16T02:11:13;5.70;83.10
36450;DHT22;22475;51.390;7.180;2022-12-16T02:13:56;5.70;83.10
36450;DHT22;22475;51.390;7.180;2022-12-16T02:16:28;5.70;83.00
36450;DHT22;22475;51.390;7.180;2022-12-16T02:19:01;5.60;82.90
36450;DHT22;22475;51.390;7.180;2022-12-16T02:21:45;5.60;82.90
36450;DHT22;22475;51.390;7.180;2022-12-16T02:24:42;5.60;82.90
36450;DHT22;22475;51.390;7.180;2022-12-16T02:27:41;5.60;82.90
36450;DHT22;22475;51.390;7.180;2022-12-16T02:33:31;5.60;82.90
36450;DHT22;22475;51.390;7.180;2022-12-16T02:36:10;5.60;83.00
36450;DHT22;22475;51.390;7.180;2022-12-16T02:38:43;5.60;83.00
36450;DHT22;22475;51.390;7.180;2022-12-16T02:41:26;5.60;83.00
36450;DHT22;22475;51.390;7.180;2022-12-16T02:43:59;5.60;83.10
36450;DHT22;22475;51.390;7.180;2022-12-16T02:46:29;5.60;83.10
36450;DHT22;22475;51.390;7.180;2022-12-16T02:49:05;5.60;83.10
36450;DHT22;22475;51.390;7.180;2022-12-16T02:51:33;5.60;83.10
36450;DHT22;22475;51.390;7.180;2022-12-16T02:54:01;5.60;83.10
36450;DHT22;22475;51.390;7.180;2022-12-16T02:56:39;5.60;83.10
36450;DHT22;22475;51.390;7.180;2022-12-16T02:59:16;5.60;83.10
36450;DHT22;22475;51.390;7.180;2022-12-16T03:01:51;5.60;83.10
36450;DHT22;22475;51.390;7.180;2022-12-16T03:04:26;5.60;83.20
36450;DHT22;22475;51.390;7.180;2022-12-16T03:06:58;5.60;83.10
36450;DHT22;22475;51.390;7.180;2022-12-16T03:09:28;5.60;83.20
36450;DHT22;22475;51.390;7.180;2022-12-16T03:11:56;5.60;83.10
36450;DHT22;22475;51.390;7.180;2022-12-16T03:14:28;5.60;83.10
36450;DHT22;22475;51.390;7.180;2022-12-16T03:16:57;5.60;83.20
36450;DHT22;22475;51.390;7.180;2022-12-16T03:19:26;5.50;83.90
36450;DHT22;22475;51.390;7.180;2022-12-16T03:21:56;5.50;83.10
36450;DHT22;22475;51.390;7.180;2022-12-16T03:24:25;5.60;83.10
36450;DHT22;22475;51.390;7.180;2022-12-16T03:26:55;5.60;83.10
36450;DHT22;22475;51.390;7.180;2022-12-16T03:29:34;5.50;83.00
36450;DHT22;22475;51.390;7.180;2022-12-16T03:32:03;5.50;83.00
36450;DHT22;22475;51.390;7.180;2022-12-16T03:34:35;5.50;83.10
36450;DHT22;22475;51.390;7.180;2022-12-16T03:37:05;5.50;83.10
36450;DHT22;22475;51.390;7.180;2022-12-16T03:39:35;5.50;83.10
36450;DHT22;22475;51.390;7.180;2022-12-16T03:42:04;5.50;83.10
36450;DHT22;22475;51.390;7.180;2022-12-16T03:44:34;5.50;83.10
36450;DHT22;22475;51.390;7.180;2022-12-16T03:47:01;5.50;83.00
36450;DHT22;22475;51.390;7.180;2022-12-16T03:49:28;5.50;83.00
36450;DHT22;22475;51.390;7.180;2022-12-16T03:51:56;5.50;83.00
36450;DHT22;22475;51.390;7.180;2022-12-16T03:54:23;5.50;82.90
36450;DHT22;22475;51.390;7.180;2022-12-16T03:56:50;5.50;83.00
36450;DHT22;22475;51.390;7.180;2022-12-16T03:59:17;5.50;82.90
36450;DHT22;22475;51.390;7.180;2022-12-16T04:01:43;5.50;83.00
36450;DHT22;22475;51.390;7.180;2022-12-16T04:04:10;5.50;83.00
36450;DHT22;22475;51.390;7.180;2022-12-16T04:06:37;5.50;83.00
36450;DHT22;22475;51.390;7.180;2022-12-16T04:09:05;5.50;83.10
36450;DHT22;22475;51.390;7.180;2022-12-16T04:11:32;5.50;83.10
36450;DHT22;22475;51.390;7.180;2022-12-16T04:14:16;5.50;83.10
36450;DHT22;22475;51.390;7.180;2022-12-16T04:17:00;5.50;83.10
36450;DHT22;22475;51.390;7.180;2022-12-16T04:19:45;5.50;83.00
36450;DHT22;22475;51.390;7.180;2022-12-16T04:22:34;5.50;82.90
36450;DHT22;22475;51.390;7.180;2022-12-16T04:25:22;5.50;82.90
36450;DHT22;22475;51.390;7.180;2022-12-16T04:27:49;5.50;82.80
36450;DHT22;22475;51.390;7.180;2022-12-16T04:30:17;5.50;82.80
36450;DHT22;22475;51.390;7.180;2022-12-16T04:32:45;5.50;83.50
36450;DHT22;22475;51.390;7.180;2022-12-16T04:35:29;5.50;82.70
36450;DHT22;22475;51.390;7.180;2022-12-16T04:38:14;5.40;82.60
36450;DHT22;22475;51.390;7.180;2022-12-16T04:40:59;5.40;82.60
36450;DHT22;22475;51.390;7.180;2022-12-16T04:43:44;5.50;82.70
36450;DHT22;22475;51.390;7.180;2022-12-16T04:46:28;5.40;82.60
36450;DHT22;22475;51.390;7.180;2022-12-16T04:49:12;5.40;82.60
36450;DHT22;22475;51.390;7.180;2022-12-16T04:51:55;5.40;82.60
36450;DHT22;22475;51.390;7.180;2022-12-16T04:54:40;5.40;82.60
36450;DHT22;22475;51.390;7.180;2022-12-16T04:57:25;5.40;82.60
36450;DHT22;22475;51.390;7.180;2022-12-16T05:00:10;5.40;82.60
36450;DHT22;22475;51.390;7.180;2022-12-16T05:02:56;5.50;82.70
36450;DHT22;22475;51.390;7.180;2022-12-16T05:05:45;5.40;82.70
36450;DHT22;22475;51.390;7.180;2022-12-16T05:08:30;5.40;82.70
36450;DHT22;22475;51.390;7.180;2022-12-16T05:11:14;5.40;82.70
36450;DHT22;22475;51.390;7.180;2022-12-16T05:14:00;5.40;82.60
36450;DHT22;22475;51.390;7.180;2022-12-16T05:16:44;5.50;82.60
36450;DHT22;22475;51.390;7.180;2022-12-16T05:19:28;5.50;82.60
36450;DHT22;22475;51.390;7.180;2022-12-16T05:22:13;5.50;82.50
36450;DHT22;22475;51.390;7.180;2022-12-16T05:24:57;5.50;82.50
36450;DHT22;22475;51.390;7.180;2022-12-16T05:27:41;5.50;82.40
36450;DHT22;22475;51.390;7.180;2022-12-16T05:30:27;5.50;82.40
36450;DHT22;22475;51.390;7.180;2022-12-16T05:33:11;5.50;82.40
36450;DHT22;22475;51.390;7.180;2022-12-16T05:35:55;5.50;82.40
36450;DHT22;22475;51.390;7.180;2022-12-16T05:38:39;5.50;82.40
36450;DHT22;22475;51.390;7.180;2022-12-16T05:41:24;5.50;82.30
36450;DHT22;22475;51.390;7.180;2022-12-16T05:44:08;5.50;82.30
36450;DHT22;22475;51.390;7.180;2022-12-16T05:46:53;5.50;82.20
36450;DHT22;22475;51.390;7.180;2022-12-16T05:49:52;5.50;82.20
36450;DHT22;22475;51.390;7.180;2022-12-16T05:52:36;5.50;82.20
36450;DHT22;22475;51.390;7.180;2022-12-16T05:55:21;5.50;82.20
36450;DHT22;22475;51.390;7.180;2022-12-16T05:58:05;5.50;82.20
36450;DHT22;22475;51.390;7.180;2022-12-16T06:00:49;5.50;82.20
36450;DHT22;22475;51.390;7.180;2022-12-16T06:03:35;5.60;82.20
36450;DHT22;22475;51.390;7.180;2022-12-16T06:06:19;5.50;82.20
36450;DHT22;22475;51.390;7.180;2022-12-16T06:09:00;5.50;82.20
36450;DHT22;22475;51.390;7.180;2022-12-16T06:11:45;5.50;82.30
36450;DHT22;22475;51.390;7.180;2022-12-16T06:14:29;5.60;82.20
36450;DHT22;22475;51.390;7.180;2022-12-16T06:17:13;5.60;82.20
36450;DHT22;22475;51.390;7.180;2022-12-16T06:19:58;5.50;82.10
36450;DHT22;22475;51.390;7.180;2022-12-16T06:22:42;5.50;82.10
36450;DHT22;22475;51.390;7.180;2022-12-16T06:25:27;5.50;82.10
36450;DHT22;22475;51.390;7.180;2022-12-16T06:28:10;5.50;82.10
36450;DHT22;22475;51.390;7.180;2022-12-16T06:30:55;5.50;82.10
36450;DHT22;22475;51.390;7.180;2022-12-16T06:33:39;5.50;82.00
36450;DHT22;22475;51.390;7.180;2022-12-16T06:36:24;5.50;82.00
36450;DHT22;22475;51.390;7.180;2022-12-16T06:39:08;5.60;82.00
36450;DHT22;22475;51.390;7.180;2022-12-16T06:41:53;5.50;82.00
36450;DHT22;22475;51.390;7.180;2022-12-16T06:44:37;5.60;82.00
36450;DHT22;22475;51.390;7.180;2022-12-16T06:47:21;5.60;82.00
36450;DHT22;22475;51.390;7.180;2022-12-16T06:50:06;5.60;82.10
36450;DHT22;22475;51.390;7.180;2022-12-16T06:52:53;5.60;82.10
36450;DHT22;22475;51.390;7.180;2022-12-16T06:55:38;5.60;82.10
36450;DHT22;22475;51.390;7.180;2022-12-16T06:58:22;5.60;82.10
36450;DHT22;22475;51.390;7.180;2022-12-16T07:01:06;5.60;82.10
36450;DHT22;22475;51.390;7.180;2022-12-16T07:03:50;5.60;82.10
36450;DHT22;22475;51.390;7.180;2022-12-16T07:06:34;5.60;82.10
36450;DHT22;22475;51.390;7.180;2022-12-16T07:09:19;5.60;82.10
36450;DHT22;22475;51.390;7.180;2022-12-16T07:12:04;5.60;82.10
36450;DHT22;22475;51.390;7.180;2022-12-16T07:14:48;5.60;82.00
36450;DHT22;22475;51.390;7.180;2022-12-16T07:17:32;5.60;82.10
36450;DHT22;22475;51.390;7.180;2022-12-16T07:20:16;5.60;82.10
36450;DHT22;22475;51.390;7.180;2022-12-16T07:23:00;5.60;82.10
36450;DHT22;22475;51.390;7.180;2022-12-16T07:25:46;5.60;82.10
36450;DHT22;22475;51.390;7.180;2022-12-16T07:28:30;5.60;82.20
36450;DHT22;22475;51.390;7.180;2022-12-16T07:31:14;5.60;82.20
36450;DHT22;22475;51.390;7.180;2022-12-16T07:33:58;5.60;82.20
36450;DHT22;22475;51.390;7.180;2022-12-16T07:36:42;5.60;82.20
36450;DHT22;22475;51.390;7.180;2022-12-16T07:39:27;5.60;82.20
36450;DHT22;22475;51.390;7.180;2022-12-16T07:42:12;5.60;82.20
36450;DHT22;22475;51.390;7.180;2022-12-16T07:44:56;5.50;82.40
36450;DHT22;22475;51.390;7.180;2022-12-16T07:47:46;5.50;82.60
36450;DHT22;22475;51.390;7.180;2022-12-16T07:50:30;5.40;82.70
36450;DHT22;22475;51.390;7.180;2022-12-16T07:53:14;5.40;82.80
36450;DHT22;22475;51.390;7.180;2022-12-16T07:55:58;5.40;83.00
36450;DHT22;22475;51.390;7.180;2022-12-16T07:58:44;5.30;83.10
36450;DHT22;22475;51.390;7.180;2022-12-16T08:01:28;5.30;83.20
36450;DHT22;22475;51.390;7.180;2022-12-16T08:04:12;5.30;83.20
36450;DHT22;22475;51.390;7.180;2022-12-16T08:06:57;5.30;83.30
36450;DHT22;22475;51.390;7.180;2022-12-16T08:09:41;5.20;83.30
36450;DHT22;22475;51.390;7.180;2022-12-16T08:12:25;5.20;83.30
36450;DHT22;22475;51.390;7.180;2022-12-16T08:15:11;5.20;83.40
36450;DHT22;22475;51.390;7.180;2022-12-16T08:17:57;5.20;83.40
36450;DHT22;22475;51.390;7.180;2022-12-16T08:20:44;5.20;83.50
36450;DHT22;22475;51.390;7.180;2022-12-16T08:23:28;5.20;83.50
36450;DHT22;22475;51.390;7.180;2022-12-16T08:26:13;5.20;83.60
36450;DHT22;22475;51.390;7.180;2022-12-16T08:28:57;5.20;83.60
36450;DHT22;22475;51.390;7.180;2022-12-16T08:31:42;5.20;83.70
36450;DHT22;22475;51.390;7.180;2022-12-16T08:34:26;5.20;83.70
36450;DHT22;22475;51.390;7.180;2022-12-16T08:37:11;5.20;83.70
36450;DHT22;22475;51.390;7.180;2022-12-16T08:39:55;5.20;83.70
36450;DHT22;22475;51.390;7.180;2022-12-16T08:42:40;5.20;83.70
36450;DHT22;22475;51.390;7.180;2022-12-16T08:45:24;5.30;83.60
36450;DHT22;22475;51.390;7.180;2022-12-16T08:48:10;5.30;83.40
36450;DHT22;22475;51.390;7.180;2022-12-16T08:50:55;5.40;83.30
36450;DHT22;22475;51.390;7.180;2022-12-16T08:53:39;5.40;83.20
36450;DHT22;22475;51.390;7.180;2022-12-16T08:56:23;5.40;83.10
36450;DHT22;22475;51.390;7.180;2022-12-16T08:59:07;5.40;82.90
36450;DHT22;22475;51.390;7.180;2022-12-16T09:01:52;5.50;82.90
36450;DHT22;22475;51.390;7.180;2022-12-16T09:04:34;5.50;82.90
36450;DHT22;22475;51.390;7.180;2022-12-16T09:07:18;5.50;82.80
36450;DHT22;22475;51.390;7.180;2022-12-16T09:10:03;5.50;82.80
36450;DHT22;22475;51.390;7.180;2022-12-16T09:12:47;5.60;82.80
36450;DHT22;22475;51.390;7.180;2022-12-16T09:15:32;5.60;82.70
36450;DHT22;22475;51.390;7.180;2022-12-16T09:18:16;5.60;82.60
36450;DHT22;22475;51.390;7.180;2022-12-16T09:21:01;5.70;82.70
36450;DHT22;22475;51.390;7.180;2022-12-16T09:23:46;5.60;82.60
36450;DHT22;22475;51.390;7.180;2022-12-16T09:26:30;5.70;82.70
36450;DHT22;22475;51.390;7.180;2022-12-16T09:29:14;5.70;82.70
36450;DHT22;22475;51.390;7.180;2022-12-16T09:31:59;5.70;82.70
36450;DHT22;22475;51.390;7.180;2022-12-16T09:34:43;5.70;82.70
36450;DHT22;22475;51.390;7.180;2022-12-16T09:37:28;5.80;82.80
36450;DHT22;22475;51.390;7.180;2022-12-16T09:40:15;5.80;82.80
36450;DHT22;22475;51.390;7.180;2022-12-16T09:43:05;5.80;83.60
36450;DHT22;22475;51.390;7.180;2022-12-16T09:45:58;5.90;82.90
36450;DHT22;22475;51.390;7.180;2022-12-16T09:48:48;5.80;82.90
36450;DHT22;22475;51.390;7.180;2022-12-16T09:51:36;5.90;83.70
36450;DHT22;22475;51.390;7.180;2022-12-16T09:54:28;6.00;83.10
36450;DHT22;22475;51.390;7.180;2022-12-16T09:57:14;6.00;83.10
36450;DHT22;22475;51.390;7.180;2022-12-16T10:00:03;6.00;83.10
36450;DHT22;22475;51.390;7.180;2022-12-16T10:02:47;6.10;83.20
36450;DHT22;22475;51.390;7.180;2022-12-16T10:05:53;6.00;83.20
36450;DHT22;22475;51.390;7.180;2022-12-16T10:08:45;6.10;84.10
36450;DHT22;22475;51.390;7.180;2022-12-16T10:11:42;6.10;83.30
36450;DHT22;22475;51.390;7.180;2022-12-16T10:14:32;6.10;83.40
36450;DHT22;22475;51.390;7.180;2022-12-16T10:17:21;6.20;83.50
36450;DHT22;22475;51.390;7.180;2022-12-16T10:20:14;6.20;83.50
36450;DHT22;22475;51.390;7.180;2022-12-16T10:23:20;6.20;83.50
36450;DHT22;22475;51.390;7.180;2022-12-16T10:26:09;6.20;83.50
36450;DHT22;22475;51.390;7.180;2022-12-16T10:29:01;6.30;83.60
36450;DHT22;22475;51.390;7.180;2022-12-16T10:31:48;6.30;83.70
36450;DHT22;22475;51.390;7.180;2022-12-16T10:34:34;6.30;83.70
36450;DHT22;22475;51.390;7.180;2022-12-16T10:37:23;6.30;83.80
36450;DHT22;22475;51.390;7.180;2022-12-16T10:40:14;6.30;83.80
36450;DHT22;22475;51.390;7.180;2022-12-16T10:43:01;6.30;83.80
36450;DHT22;22475;51.390;7.180;2022-12-16T10:45:50;6.30;83.80
36450;DHT22;22475;51.390;7.180;2022-12-16T10:48:43;6.30;83.90
36450;DHT22;22475;51.390;7.180;2022-12-16T10:51:28;6.40;83.90
36450;DHT22;22475;51.390;7.180;2022-12-16T10:54:31;6.40;84.00
36450;DHT22;22475;51.390;7.180;2022-12-16T10:57:26;6.40;84.00
36450;DHT22;22475;51.390;7.180;2022-12-16T11:00:15;6.40;84.00
36450;DHT22;22475;51.390;7.180;2022-12-16T11:03:19;6.50;84.10
36450;DHT22;22475;51.390;7.180;2022-12-16T11:06:04;6.50;84.20
36450;DHT22;22475;51.390;7.180;2022-12-16T11:08:48;6.50;84.20
36450;DHT22;22475;51.390;7.180;2022-12-16T11:11:33;6.50;84.20
36450;DHT22;22475;51.390;7.180;2022-12-16T11:14:21;6.50;84.30
36450;DHT22;22475;51.390;7.180;2022-12-16T11:17:15;6.60;84.40
36450;DHT22;22475;51.390;7.180;2022-12-16T11:20:11;6.50;84.50
36450;DHT22;22475;51.390;7.180;2022-12-16T11:23:12;6.60;84.50
36450;DHT22;22475;51.390;7.180;2022-12-16T11:26:08;6.60;84.70
36450;DHT22;22475;51.390;7.180;2022-12-16T11:29:02;6.60;84.70
36450;DHT22;22475;51.390;7.180;2022-12-16T11:31:50;6.60;84.80
36450;DHT22;22475;51.390;7.180;2022-12-16T11:34:37;6.60;84.80
36450;DHT22;22475;51.390;7.180;2022-12-16T11:37:23;6.70;84.80
36450;DHT22;22475;51.390;7.180;2022-12-16T11:40:11;6.70;84.90
36450;DHT22;22475;51.390;7.180;2022-12-16T11:42:56;6.70;84.90
36450;DHT22;22475;51.390;7.180;2022-12-16T11:45:42;6.70;84.90
36450;DHT22;22475;51.390;7.180;2022-12-16T11:48:32;6.70;85.00
36450;DHT22;22475;51.390;7.180;2022-12-16T11:51:20;6.70;85.00
36450;DHT22;22475;51.390;7.180;2022-12-16T11:54:12;6.80;85.20
36450;DHT22;22475;51.390;7.180;2022-12-16T11:57:00;6.80;85.20
36450;DHT22;22475;51.390;7.180;2022-12-16T11:59:51;6.70;85.10
36450;DHT22;22475;51.390;7.180;2022-12-16T12:02:39;6.80;85.30
36450;DHT22;22475;51.390;7.180;2022-12-16T12:05:29;6.80;85.30
36450;DHT22;22475;51.390;7.180;2022-12-16T12:08:20;6.80;85.30
36450;DHT22;22475;51.390;7.180;2022-12-16T12:11:14;6.80;85.40
36450;DHT22;22475;51.390;7.180;2022-12-16T12:14:06;6.80;85.40
36450;DHT22;22475;51.390;7.180;2022-12-16T12:17:01;6.80;85.40
36450;DHT22;22475;51.390;7.180;2022-12-16T12:19:57;6.90;85.50
36450;DHT22;22475;51.390;7.180;2022-12-16T12:22:45;6.90;85.60
36450;DHT22;22475;51.390;7.180;2022-12-16T12:25:31;6.90;85.60
36450;DHT22;22475;51.390;7.180;2022-12-16T12:28:27;6.90;85.60
36450;DHT22;22475;51.390;7.180;2022-12-16T12:31:26;6.90;85.70
36450;DHT22;22475;51.390;7.180;2022-12-16T12:34:18;6.90;85.70
36450;DHT22;22475;51.390;7.180;2022-12-16T12:37:08;7.00;85.80
36450;DHT22;22475;51.390;7.180;2022-12-16T12:39:59;7.00;85.80
36450;DHT22;22475;51.390;7.180;2022-12-16T12:42:50;7.00;85.90
36450;DHT22;22475;51.390;7.180;2022-12-16T12:45:55;7.00;85.90
36450;DHT22;22475;51.390;7.180;2022-12-16T12:48:47;7.00;85.90
36450;DHT22;22475;51.390;7.180;2022-12-16T12:51:40;7.00;86.00
36450;DHT22;22475;51.390;7.180;2022-12-16T12:54:32;7.00;86.00
36450;DHT22;22475;51.390;7.180;2022-12-16T12:57:21;7.00;86.00
36450;DHT22;22475;51.390;7.180;2022-12-16T13:00:14;7.00;86.00
36450;DHT22;22475;51.390;7.180;2022-12-16T13:03:04;7.00;86.10
36450;DHT22;22475;51.390;7.180;2022-12-16T13:05:50;7.00;86.10
36450;DHT22;22475;51.390;7.180;2022-12-16T13:08:58;7.10;86.20
36450;DHT22;22475;51.390;7.180;2022-12-16T13:15:05;7.10;86.10
36450;DHT22;22475;51.390;7.180;2022-12-16T13:21:43;7.10;86.20
36450;DHT22;22475;51.390;7.180;2022-12-16T13:24:38;7.00;86.20
36450;DHT22;22475;51.390;7.180;2022-12-16T13:27:23;7.10;86.30
36450;DHT22;22475;51.390;7.180;2022-12-16T13:30:22;7.10;86.30
36450;DHT22;22475;51.390;7.180;2022-12-16T13:33:21;7.10;86.40
36450;DHT22;22475;51.390;7.180;2022-12-16T13:36:13;7.10;86.40
36450;DHT22;22475;51.390;7.180;2022-12-16T13:39:20;7.10;86.50
36450;DHT22;22475;51.390;7.180;2022-12-16T13:42:05;7.10;86.60
36450;DHT22;22475;51.390;7.180;2022-12-16T13:44:55;7.10;86.50
36450;DHT22;22475;51.390;7.180;2022-12-16T13:48:15;7.10;86.60
36450;DHT22;22475;51.390;7.180;2022-12-16T13:51:07;7.10;86.60
36450;DHT22;22475;51.390;7.180;2022-12-16T13:53:52;7.10;86.60
36450;DHT22;22475;51.390;7.180;2022-12-16T13:56:42;7.10;86.60
36450;DHT22;22475;51.390;7.180;2022-12-16T13:59:31;7.10;86.60
36450;DHT22;22475;51.390;7.180;2022-12-16T14:02:25;7.10;86.60
36450;DHT22;22475;51.390;7.180;2022-12-16T14:05:17;7.10;86.70
36450;DHT22;22475;51.390;7.180;2022-12-16T14:08:04;7.10;86.60
36450;DHT22;22475;51.390;7.180;2022-12-16T14:10:55;7.10;86.60
36450;DHT22;22475;51.390;7.180;2022-12-16T14:13:47;7.10;86.60
36450;DHT22;22475;51.390;7.180;2022-12-16T14:16:42;7.10;86.60
36450;DHT22;22475;51.390;7.180;2022-12-16T14:19:33;7.10;86.60
36450;DHT22;22475;51.390;7.180;2022-12-16T14:22:28;7.10;86.60
36450;DHT22;22475;51.390;7.180;2022-12-16T14:25:16;7.10;86.50
36450;DHT22;22475;51.390;7.180;2022-12-16T14:28:07;7.10;86.50
36450;DHT22;22475;51.390;7.180;2022-12-16T14:31:03;7.10;86.50
36450;DHT22;22475;51.390;7.180;2022-12-16T14:33:51;7.10;86.50
36450;DHT22;22475;51.390;7.180;2022-12-16T14:36:37;7.10;86.40
36450;DHT22;22475;51.390;7.180;2022-12-16T14:39:25;7.10;86.40
36450;DHT22;22475;51.390;7.180;2022-12-16T14:42:17;7.10;86.40
36450;DHT22;22475;51.390;7.180;2022-12-16T14:45:03;7.10;86.30
36450;DHT22;22475;51.390;7.180;2022-12-16T14:47:48;7.10;86.30
36450;DHT22;22475;51.390;7.180;2022-12-16T14:50:36;7.10;86.20
36450;DHT22;22475;51.390;7.180;2022-12-16T14:53:21;7.00;86.20
36450;DHT22;22475;51.390;7.180;2022-12-16T14:56:17;7.10;86.40
36450;DHT22;22475;51.390;7.180;2022-12-16T14:59:11;7.00;86.50
36450;DHT22;22475;51.390;7.180;2022-12-16T15:01:57;7.10;86.60
36450;DHT22;22475;51.390;7.180;2022-12-16T15:04:44;7.10;86.50
36450;DHT22;22475;51.390;7.180;2022-12-16T15:07:33;7.10;86.50
36450;DHT22;22475;51.390;7.180;2022-12-16T15:10:19;7.10;86.30
36450;DHT22;22475;51.390;7.180;2022-12-16T15:13:04;7.10;86.20
36450;DHT22;22475;51.390;7.180;2022-12-16T15:15:49;7.10;86.10
36450;DHT22;22475;51.390;7.180;2022-12-16T15:18:37;7.10;86.00
36450;DHT22;22475;51.390;7.180;2022-12-16T15:21:24;7.10;85.90
36450;DHT22;22475;51.390;7.180;2022-12-16T15:24:09;7.00;85.70
36450;DHT22;22475;51.390;7.180;2022-12-16T15:27:12;7.00;85.60
36450;DHT22;22475;51.390;7.180;2022-12-16T15:29:59;7.00;85.50
36450;DHT22;22475;51.390;7.180;2022-12-16T15:32:52;7.00;85.50
36450;DHT22;22475;51.390;7.180;2022-12-16T15:35:37;7.00;85.40
36450;DHT22;22475;51.390;7.180;2022-12-16T15:38:28;7.00;85.40
36450;DHT22;22475;51.390;7.180;2022-12-16T15:41:18;7.00;85.50
36450;DHT22;22475;51.390;7.180;2022-12-16T15:44:03;7.00;85.40
36450;DHT22;22475;51.390;7.180;2022-12-16T15:46:48;7.00;85.30
36450;DHT22;22475;51.390;7.180;2022-12-16T15:49:34;6.90;85.20
36450;DHT22;22475;51.390;7.180;2022-12-16T15:52:32;6.90;85.20
36450;DHT22;22475;51.390;7.180;2022-12-16T15:55:28;6.90;85.20
36450;DHT22;22475;51.390;7.180;2022-12-16T15:58:18;6.90;85.20
36450;DHT22;22475;51.390;7.180;2022-12-16T16:01:02;6.90;85.20
36450;DHT22;22475;51.390;7.180;2022-12-16T16:03:49;6.90;85.30
36450;DHT22;22475;51.390;7.180;2022-12-16T16:06:34;6.90;85.40
36450;DHT22;22475;51.390;7.180;2022-12-16T16:09:26;6.90;85.50
36450;DHT22;22475;51.390;7.180;2022-12-16T16:12:14;6.80;85.50
36450;DHT22;22475;51.390;7.180;2022-12-16T16:14:58;6.80;85.50
36450;DHT22;22475;51.390;7.180;2022-12-16T16:17:43;6.80;85.40
36450;DHT22;22475;51.390;7.180;2022-12-16T16:20:27;6.80;85.40
36450;DHT22;22475;51.390;7.180;2022-12-16T16:23:12;6.80;85.30
36450;DHT22;22475;51.390;7.180;2022-12-16T16:25:56;6.80;85.30
36450;DHT22;22475;51.390;7.180;2022-12-16T16:28:42;6.80;85.20
36450;DHT22;22475;51.390;7.180;2022-12-16T16:31:26;6.70;85.00
36450;DHT22;22475;51.390;7.180;2022-12-16T16:34:11;6.80;85.00
36450;DHT22;22475;51.390;7.180;2022-12-16T16:36:56;6.70;84.90
36450;DHT22;22475;51.390;7.180;2022-12-16T16:39:42;6.70;84.90
36450;DHT22;22475;51.390;7.180;2022-12-16T16:42:26;6.70;84.90
36450;DHT22;22475;51.390;7.180;2022-12-16T16:45:12;6.70;84.90
36450;DHT22;22475;51.390;7.180;2022-12-16T16:48:04;6.70;84.90
36450;DHT22;22475;51.390;7.180;2022-12-16T16:50:49;6.70;84.90
36450;DHT22;22475;51.390;7.180;2022-12-16T16:53:33;6.70;84.90
36450;DHT22;22475;51.390;7.180;2022-12-16T16:56:18;6.70;84.80
36450;DHT22;22475;51.390;7.180;2022-12-16T16:59:03;6.70;84.80
36450;DHT22;22475;51.390;7.180;2022-12-16T17:01:49;6.70;84.80
36450;DHT22;22475;51.390;7.180;2022-12-16T17:04:48;6.70;84.80
36450;DHT22;22475;51.390;7.180;2022-12-16T17:07:32;6.70;84.80
36450;DHT22;22475;51.390;7.180;2022-12-16T17:10:16;6.70;84.80
36450;DHT22;22475;51.390;7.180;2022-12-16T17:13:01;6.70;84.70
36450;DHT22;22475;51.390;7.180;2022-12-16T17:15:44;6.70;84.80
36450;DHT22;22475;51.390;7.180;2022-12-16T17:18:30;6.70;84.70
36450;DHT22;22475;51.390;7.180;2022-12-16T17:21:14;6.60;84.60
36450;DHT22;22475;51.390;7.180;2022-12-16T17:23:58;6.70;84.60
36450;DHT22;22475;51.390;7.180;2022-12-16T17:26:43;6.60;84.50
36450;DHT22;22475;51.390;7.180;2022-12-16T17:29:27;6.60;84.50
36450;DHT22;22475;51.390;7.180;2022-12-16T17:32:12;6.60;84.50
36450;DHT22;22475;51.390;7.180;2022-12-16T17:34:58;6.60;84.50